sensor_id;sensor_type;location;lat;lon;timestamp;P1;durP1;ratioP1;P2;durP2;ratioP2
23046;SDS011;11691;51.462;6.902;2022-12-05T00:01:17;41.87;;;19.57;;
23046;SDS011;11691;51.462;6.902;2022-12-05T00:03:43;39.57;;;19.03;;
23046;SDS011;11691;51.462;6.902;2022-12-05T00:06:09;39.20;;;19.70;;
23046;SDS011;11691;51.462;6.902;2022-12-05T00:08:35;36.10;;;19.47;;
23046;SDS011;11691;51.462;6.902;2022-12-05T00:11:01;38.80;;;21.00;;
23046;SDS011;11691;51.462;6.902;2022-12-05T00:13:27;34.80;;;18.37;;
23046;SDS011;11691;51.462;6.902;2022-12-05T00:15:53;39.63;;;20.00;;
23046;SDS011;11691;51.462;6.902;2022-12-05T00:18:19;37.63;;;20.13;;
23046;SDS011;11691;51.462;6.902;2022-12-05T00:20:45;35.07;;;19.50;;
23046;SDS011;11691;51.462;6.902;2022-12-05T00:23:12;37.17;;;20.53;;
23046;SDS011;11691;51.462;6.902;2022-12-05T00:25:38;37.00;;;19.03;;
23046;SDS011;11691;51.462;6.902;2022-12-05T00:28:04;38.50;;;20.43;;
23046;SDS011;11691;51.462;6.902;2022-12-05T00:30:30;34.53;;;19.47;;
23046;SDS011;11691;51.462;6.902;2022-12-05T00:32:56;41.03;;;21.13;;
23046;SDS011;11691;51.462;6.902;2022-12-05T00:35:23;43.00;;;21.73;;
23046;SDS011;11691;51.462;6.902;2022-12-05T00:37:49;39.80;;;19.83;;
23046;SDS011;11691;51.462;6.902;2022-12-05T00:40:15;39.03;;;20.10;;
23046;SDS011;11691;51.462;6.902;2022-12-05T00:42:41;37.80;;;20.33;;
23046;SDS011;11691;51.462;6.902;2022-12-05T00:45:07;42.47;;;19.97;;
23046;SDS011;11691;51.462;6.902;2022-12-05T00:47:34;38.73;;;20.10;;
23046;SDS011;11691;51.462;6.902;2022-12-05T00:50:00;40.00;;;19.87;;
23046;SDS011;11691;51.462;6.902;2022-12-05T00:52:26;42.83;;;20.37;;
23046;SDS011;11691;51.462;6.902;2022-12-05T00:54:52;36.37;;;19.87;;
23046;SDS011;11691;51.462;6.902;2022-12-05T00:57:18;38.87;;;20.27;;
23046;SDS011;11691;51.462;6.902;2022-12-05T00:59:44;38.43;;;19.40;;
23046;SDS011;11691;51.462;6.902;2022-12-05T01:02:10;39.23;;;20.13;;
23046;SDS011;11691;51.462;6.902;2022-12-05T01:04:36;35.97;;;19.47;;
23046;SDS011;11691;51.462;6.902;2022-12-05T01:07:02;38.37;;;20.00;;
23046;SDS011;11691;51.462;6.902;2022-12-05T01:09:28;38.47;;;20.27;;
23046;SDS011;11691;51.462;6.902;2022-12-05T01:11:54;34.47;;;19.10;;
23046;SDS011;11691;51.462;6.902;2022-12-05T01:14:22;36.77;;;20.03;;
23046;SDS011;11691;51.462;6.902;2022-12-05T01:16:49;39.57;;;19.80;;
23046;SDS011;11691;51.462;6.902;2022-12-05T01:19:24;34.07;;;19.70;;
23046;SDS011;11691;51.462;6.902;2022-12-05T01:21:50;36.37;;;19.70;;
23046;SDS011;11691;51.462;6.902;2022-12-05T01:24:17;40.30;;;21.17;;
23046;SDS011;11691;51.462;6.902;2022-12-05T01:26:43;36.93;;;20.43;;
23046;SDS011;11691;51.462;6.902;2022-12-05T01:29:10;36.07;;;19.83;;
23046;SDS011;11691;51.462;6.902;2022-12-05T01:31:38;40.33;;;20.50;;
23046;SDS011;11691;51.462;6.902;2022-12-05T01:34:05;36.30;;;19.93;;
23046;SDS011;11691;51.462;6.902;2022-12-05T01:36:31;40.53;;;20.43;;
23046;SDS011;11691;51.462;6.902;2022-12-05T01:38:58;38.90;;;20.47;;
23046;SDS011;11691;51.462;6.902;2022-12-05T01:41:28;40.43;;;21.63;;
23046;SDS011;11691;51.462;6.902;2022-12-05T01:43:56;38.13;;;20.13;;
23046;SDS011;11691;51.462;6.902;2022-12-05T01:46:23;38.33;;;19.67;;
23046;SDS011;11691;51.462;6.902;2022-12-05T01:48:49;40.43;;;20.37;;
23046;SDS011;11691;51.462;6.902;2022-12-05T01:51:16;36.33;;;20.90;;
23046;SDS011;11691;51.462;6.902;2022-12-05T01:53:42;40.10;;;20.10;;
23046;SDS011;11691;51.462;6.902;2022-12-05T01:56:08;37.73;;;19.17;;
23046;SDS011;11691;51.462;6.902;2022-12-05T01:58:35;40.57;;;20.83;;
23046;SDS011;11691;51.462;6.902;2022-12-05T02:01:02;36.50;;;19.97;;
23046;SDS011;11691;51.462;6.902;2022-12-05T02:03:29;38.00;;;20.07;;
23046;SDS011;11691;51.462;6.902;2022-12-05T02:05:55;43.33;;;20.00;;
23046;SDS011;11691;51.462;6.902;2022-12-05T02:08:23;35.47;;;19.87;;
23046;SDS011;11691;51.462;6.902;2022-12-05T02:10:53;42.33;;;21.23;;
23046;SDS011;11691;51.462;6.902;2022-12-05T02:16:36;36.33;;;20.37;;
23046;SDS011;11691;51.462;6.902;2022-12-05T02:26:53;40.53;;;20.40;;
23046;SDS011;11691;51.462;6.902;2022-12-05T02:30:08;41.40;;;20.93;;
23046;SDS011;11691;51.462;6.902;2022-12-05T02:37:12;44.93;;;21.63;;
23046;SDS011;11691;51.462;6.902;2022-12-05T02:40:47;44.63;;;22.40;;
23046;SDS011;11691;51.462;6.902;2022-12-05T02:43:11;38.13;;;20.50;;
23046;SDS011;11691;51.462;6.902;2022-12-05T02:45:40;41.43;;;20.87;;
23046;SDS011;11691;51.462;6.902;2022-12-05T02:48:08;47.90;;;22.53;;
23046;SDS011;11691;51.462;6.902;2022-12-05T02:50:37;43.13;;;20.17;;
23046;SDS011;11691;51.462;6.902;2022-12-05T02:53:08;42.60;;;22.07;;
23046;SDS011;11691;51.462;6.902;2022-12-05T02:55:37;44.17;;;20.87;;
23046;SDS011;11691;51.462;6.902;2022-12-05T02:58:06;48.47;;;21.57;;
23046;SDS011;11691;51.462;6.902;2022-12-05T03:00:37;40.03;;;19.50;;
23046;SDS011;11691;51.462;6.902;2022-12-05T03:03:05;38.27;;;20.07;;
23046;SDS011;11691;51.462;6.902;2022-12-05T03:05:39;37.10;;;19.33;;
23046;SDS011;11691;51.462;6.902;2022-12-05T03:08:10;36.30;;;19.70;;
23046;SDS011;11691;51.462;6.902;2022-12-05T03:10:38;37.50;;;19.13;;
23046;SDS011;11691;51.462;6.902;2022-12-05T03:13:09;40.90;;;19.77;;
23046;SDS011;11691;51.462;6.902;2022-12-05T03:15:39;31.73;;;17.50;;
23046;SDS011;11691;51.462;6.902;2022-12-05T03:18:25;37.00;;;18.93;;
23046;SDS011;11691;51.462;6.902;2022-12-05T03:20:59;40.67;;;19.30;;
23046;SDS011;11691;51.462;6.902;2022-12-05T03:23:33;42.50;;;19.03;;
23046;SDS011;11691;51.462;6.902;2022-12-05T03:29:00;37.90;;;18.90;;
23046;SDS011;11691;51.462;6.902;2022-12-05T03:31:32;34.40;;;17.40;;
23046;SDS011;11691;51.462;6.902;2022-12-05T03:33:59;37.20;;;18.60;;
23046;SDS011;11691;51.462;6.902;2022-12-05T03:36:28;35.43;;;17.63;;
23046;SDS011;11691;51.462;6.902;2022-12-05T03:44:16;33.40;;;18.03;;
23046;SDS011;11691;51.462;6.902;2022-12-05T03:46:45;32.60;;;18.20;;
23046;SDS011;11691;51.462;6.902;2022-12-05T03:49:17;36.53;;;19.57;;
23046;SDS011;11691;51.462;6.902;2022-12-05T03:51:56;33.37;;;17.43;;
23046;SDS011;11691;51.462;6.902;2022-12-05T03:54:27;37.00;;;18.53;;
23046;SDS011;11691;51.462;6.902;2022-12-05T03:56:58;36.20;;;18.73;;
23046;SDS011;11691;51.462;6.902;2022-12-05T03:59:37;40.13;;;18.73;;
23046;SDS011;11691;51.462;6.902;2022-12-05T04:02:06;35.10;;;17.80;;
23046;SDS011;11691;51.462;6.902;2022-12-05T04:04:36;31.83;;;18.30;;
23046;SDS011;11691;51.462;6.902;2022-12-05T04:07:06;35.83;;;18.77;;
23046;SDS011;11691;51.462;6.902;2022-12-05T04:09:54;38.80;;;19.03;;
23046;SDS011;11691;51.462;6.902;2022-12-05T04:12:26;41.30;;;19.23;;
23046;SDS011;11691;51.462;6.902;2022-12-05T04:14:56;42.87;;;20.57;;
23046;SDS011;11691;51.462;6.902;2022-12-05T04:17:33;41.87;;;19.00;;
23046;SDS011;11691;51.462;6.902;2022-12-05T04:20:13;39.33;;;19.13;;
23046;SDS011;11691;51.462;6.902;2022-12-05T04:22:58;44.27;;;20.80;;
23046;SDS011;11691;51.462;6.902;2022-12-05T04:25:26;40.83;;;19.83;;
23046;SDS011;11691;51.462;6.902;2022-12-05T04:36:15;42.37;;;20.53;;
23046;SDS011;11691;51.462;6.902;2022-12-05T04:38:46;43.17;;;21.17;;
23046;SDS011;11691;51.462;6.902;2022-12-05T04:41:15;40.03;;;19.17;;
23046;SDS011;11691;51.462;6.902;2022-12-05T04:43:46;39.60;;;19.77;;
23046;SDS011;11691;51.462;6.902;2022-12-05T04:46:15;41.73;;;20.87;;
23046;SDS011;11691;51.462;6.902;2022-12-05T04:48:44;44.63;;;20.33;;
23046;SDS011;11691;51.462;6.902;2022-12-05T04:51:16;44.27;;;20.50;;
23046;SDS011;11691;51.462;6.902;2022-12-05T04:53:43;43.03;;;20.97;;
23046;SDS011;11691;51.462;6.902;2022-12-05T04:56:10;44.97;;;22.10;;
23046;SDS011;11691;51.462;6.902;2022-12-05T04:58:38;48.37;;;22.00;;
23046;SDS011;11691;51.462;6.902;2022-12-05T05:05:59;42.77;;;21.03;;
23046;SDS011;11691;51.462;6.902;2022-12-05T05:08:26;39.47;;;20.43;;
23046;SDS011;11691;51.462;6.902;2022-12-05T05:13:21;37.57;;;18.97;;
23046;SDS011;11691;51.462;6.902;2022-12-05T05:15:47;42.47;;;20.87;;
23046;SDS011;11691;51.462;6.902;2022-12-05T05:18:13;41.73;;;20.77;;
23046;SDS011;11691;51.462;6.902;2022-12-05T05:20:39;41.97;;;21.03;;
23046;SDS011;11691;51.462;6.902;2022-12-05T05:23:05;45.83;;;20.53;;
23046;SDS011;11691;51.462;6.902;2022-12-05T05:25:31;41.33;;;20.57;;
23046;SDS011;11691;51.462;6.902;2022-12-05T05:27:57;44.40;;;21.03;;
23046;SDS011;11691;51.462;6.902;2022-12-05T05:30:23;39.10;;;19.67;;
23046;SDS011;11691;51.462;6.902;2022-12-05T05:32:49;36.40;;;19.13;;
23046;SDS011;11691;51.462;6.902;2022-12-05T05:35:15;37.03;;;20.37;;
23046;SDS011;11691;51.462;6.902;2022-12-05T05:37:42;39.47;;;20.13;;
23046;SDS011;11691;51.462;6.902;2022-12-05T05:40:08;41.87;;;18.33;;
23046;SDS011;11691;51.462;6.902;2022-12-05T05:42:35;42.13;;;18.77;;
23046;SDS011;11691;51.462;6.902;2022-12-05T05:45:02;39.87;;;19.20;;
23046;SDS011;11691;51.462;6.902;2022-12-05T05:47:28;35.60;;;19.03;;
23046;SDS011;11691;51.462;6.902;2022-12-05T05:49:54;38.30;;;18.00;;
23046;SDS011;11691;51.462;6.902;2022-12-05T05:52:20;32.90;;;17.47;;
23046;SDS011;11691;51.462;6.902;2022-12-05T05:54:45;36.83;;;19.47;;
23046;SDS011;11691;51.462;6.902;2022-12-05T05:57:11;34.47;;;18.77;;
23046;SDS011;11691;51.462;6.902;2022-12-05T05:59:36;40.60;;;20.23;;
23046;SDS011;11691;51.462;6.902;2022-12-05T06:02:02;33.20;;;18.17;;
23046;SDS011;11691;51.462;6.902;2022-12-05T06:04:28;34.33;;;17.87;;
23046;SDS011;11691;51.462;6.902;2022-12-05T06:06:54;33.93;;;18.17;;
23046;SDS011;11691;51.462;6.902;2022-12-05T06:09:20;36.43;;;18.03;;
23046;SDS011;11691;51.462;6.902;2022-12-05T06:11:46;36.93;;;18.87;;
23046;SDS011;11691;51.462;6.902;2022-12-05T06:14:12;31.00;;;16.90;;
23046;SDS011;11691;51.462;6.902;2022-12-05T06:16:38;33.30;;;18.37;;
23046;SDS011;11691;51.462;6.902;2022-12-05T06:19:04;31.53;;;17.00;;
23046;SDS011;11691;51.462;6.902;2022-12-05T06:21:30;30.53;;;17.23;;
23046;SDS011;11691;51.462;6.902;2022-12-05T06:23:56;34.80;;;17.83;;
23046;SDS011;11691;51.462;6.902;2022-12-05T06:26:22;32.27;;;16.97;;
23046;SDS011;11691;51.462;6.902;2022-12-05T06:28:48;39.20;;;18.07;;
23046;SDS011;11691;51.462;6.902;2022-12-05T06:31:16;33.27;;;17.10;;
23046;SDS011;11691;51.462;6.902;2022-12-05T06:33:43;33.60;;;16.43;;
23046;SDS011;11691;51.462;6.902;2022-12-05T06:36:10;33.23;;;17.27;;
23046;SDS011;11691;51.462;6.902;2022-12-05T06:38:36;40.50;;;17.73;;
23046;SDS011;11691;51.462;6.902;2022-12-05T06:41:04;35.90;;;17.23;;
23046;SDS011;11691;51.462;6.902;2022-12-05T06:43:30;30.97;;;17.00;;
23046;SDS011;11691;51.462;6.902;2022-12-05T06:45:56;30.87;;;17.23;;
23046;SDS011;11691;51.462;6.902;2022-12-05T06:48:22;30.07;;;16.37;;
23046;SDS011;11691;51.462;6.902;2022-12-05T06:50:49;27.97;;;14.83;;
23046;SDS011;11691;51.462;6.902;2022-12-05T06:53:15;29.57;;;16.20;;
23046;SDS011;11691;51.462;6.902;2022-12-05T06:55:41;28.07;;;16.00;;
23046;SDS011;11691;51.462;6.902;2022-12-05T06:58:07;26.10;;;14.83;;
23046;SDS011;11691;51.462;6.902;2022-12-05T07:00:33;23.20;;;14.37;;
23046;SDS011;11691;51.462;6.902;2022-12-05T07:03:17;28.20;;;15.73;;
23046;SDS011;11691;51.462;6.902;2022-12-05T07:05:43;25.77;;;14.77;;
23046;SDS011;11691;51.462;6.902;2022-12-05T07:08:09;21.93;;;12.87;;
23046;SDS011;11691;51.462;6.902;2022-12-05T07:10:35;23.47;;;13.70;;
23046;SDS011;11691;51.462;6.902;2022-12-05T07:13:01;27.00;;;14.50;;
23046;SDS011;11691;51.462;6.902;2022-12-05T07:15:27;23.60;;;13.90;;
23046;SDS011;11691;51.462;6.902;2022-12-05T07:17:53;23.13;;;13.27;;
23046;SDS011;11691;51.462;6.902;2022-12-05T07:20:18;21.93;;;13.63;;
23046;SDS011;11691;51.462;6.902;2022-12-05T07:22:44;21.27;;;12.80;;
23046;SDS011;11691;51.462;6.902;2022-12-05T07:25:10;23.23;;;14.17;;
23046;SDS011;11691;51.462;6.902;2022-12-05T07:27:37;31.77;;;14.60;;
23046;SDS011;11691;51.462;6.902;2022-12-05T07:30:03;23.47;;;13.53;;
23046;SDS011;11691;51.462;6.902;2022-12-05T07:32:30;22.50;;;13.47;;
23046;SDS011;11691;51.462;6.902;2022-12-05T07:34:57;20.80;;;13.27;;
23046;SDS011;11691;51.462;6.902;2022-12-05T07:37:23;20.20;;;13.23;;
23046;SDS011;11691;51.462;6.902;2022-12-05T07:39:50;21.43;;;13.23;;
23046;SDS011;11691;51.462;6.902;2022-12-05T07:42:17;24.40;;;13.17;;
23046;SDS011;11691;51.462;6.902;2022-12-05T07:44:43;23.27;;;12.80;;
23046;SDS011;11691;51.462;6.902;2022-12-05T07:47:09;19.70;;;12.40;;
23046;SDS011;11691;51.462;6.902;2022-12-05T07:49:35;18.57;;;11.90;;
23046;SDS011;11691;51.462;6.902;2022-12-05T07:52:01;20.43;;;12.57;;
23046;SDS011;11691;51.462;6.902;2022-12-05T07:54:27;23.53;;;13.53;;
23046;SDS011;11691;51.462;6.902;2022-12-05T07:56:53;20.77;;;12.63;;
23046;SDS011;11691;51.462;6.902;2022-12-05T07:59:19;20.40;;;12.27;;
23046;SDS011;11691;51.462;6.902;2022-12-05T08:01:45;19.13;;;11.87;;
23046;SDS011;11691;51.462;6.902;2022-12-05T08:04:12;18.50;;;11.37;;
23046;SDS011;11691;51.462;6.902;2022-12-05T08:06:38;19.70;;;12.53;;
23046;SDS011;11691;51.462;6.902;2022-12-05T08:09:04;23.83;;;12.17;;
23046;SDS011;11691;51.462;6.902;2022-12-05T08:11:31;20.87;;;11.87;;
23046;SDS011;11691;51.462;6.902;2022-12-05T08:14:00;17.83;;;11.93;;
23046;SDS011;11691;51.462;6.902;2022-12-05T08:16:27;17.97;;;10.90;;
23046;SDS011;11691;51.462;6.902;2022-12-05T08:18:54;17.83;;;11.43;;
23046;SDS011;11691;51.462;6.902;2022-12-05T08:21:20;21.73;;;12.20;;
23046;SDS011;11691;51.462;6.902;2022-12-05T08:23:47;21.27;;;12.30;;
23046;SDS011;11691;51.462;6.902;2022-12-05T08:26:19;18.00;;;12.03;;
23046;SDS011;11691;51.462;6.902;2022-12-05T08:28:46;19.93;;;11.87;;
23046;SDS011;11691;51.462;6.902;2022-12-05T08:31:13;22.07;;;12.77;;
23046;SDS011;11691;51.462;6.902;2022-12-05T08:33:40;20.07;;;12.77;;
23046;SDS011;11691;51.462;6.902;2022-12-05T08:36:07;20.33;;;12.40;;
23046;SDS011;11691;51.462;6.902;2022-12-05T08:38:34;19.53;;;12.23;;
23046;SDS011;11691;51.462;6.902;2022-12-05T08:41:05;21.50;;;12.77;;
23046;SDS011;11691;51.462;6.902;2022-12-05T08:43:33;21.37;;;12.63;;
23046;SDS011;11691;51.462;6.902;2022-12-05T08:45:59;20.50;;;12.43;;
23046;SDS011;11691;51.462;6.902;2022-12-05T08:48:26;19.87;;;11.93;;
23046;SDS011;11691;51.462;6.902;2022-12-05T08:50:52;19.03;;;11.83;;
23046;SDS011;11691;51.462;6.902;2022-12-05T08:53:18;19.53;;;12.37;;
23046;SDS011;11691;51.462;6.902;2022-12-05T08:55:44;19.47;;;11.87;;
23046;SDS011;11691;51.462;6.902;2022-12-05T08:58:11;20.23;;;12.40;;
23046;SDS011;11691;51.462;6.902;2022-12-05T09:00:37;19.93;;;12.00;;
23046;SDS011;11691;51.462;6.902;2022-12-05T09:03:03;18.40;;;11.83;;
23046;SDS011;11691;51.462;6.902;2022-12-05T09:05:29;21.20;;;13.30;;
23046;SDS011;11691;51.462;6.902;2022-12-05T09:07:55;21.43;;;11.60;;
23046;SDS011;11691;51.462;6.902;2022-12-05T09:10:23;20.03;;;11.33;;
23046;SDS011;11691;51.462;6.902;2022-12-05T09:12:49;19.17;;;12.33;;
23046;SDS011;11691;51.462;6.902;2022-12-05T09:15:16;18.63;;;11.70;;
23046;SDS011;11691;51.462;6.902;2022-12-05T09:17:42;19.23;;;11.50;;
23046;SDS011;11691;51.462;6.902;2022-12-05T09:20:08;19.03;;;11.27;;
23046;SDS011;11691;51.462;6.902;2022-12-05T09:22:35;16.80;;;10.77;;
23046;SDS011;11691;51.462;6.902;2022-12-05T09:25:02;19.93;;;12.37;;
23046;SDS011;11691;51.462;6.902;2022-12-05T09:27:28;17.17;;;11.17;;
23046;SDS011;11691;51.462;6.902;2022-12-05T09:29:54;16.27;;;11.23;;
23046;SDS011;11691;51.462;6.902;2022-12-05T09:32:20;16.37;;;11.23;;
23046;SDS011;11691;51.462;6.902;2022-12-05T09:34:46;17.40;;;11.33;;
23046;SDS011;11691;51.462;6.902;2022-12-05T09:37:12;17.07;;;11.40;;
23046;SDS011;11691;51.462;6.902;2022-12-05T09:39:38;19.00;;;11.23;;
23046;SDS011;11691;51.462;6.902;2022-12-05T09:42:14;18.40;;;10.97;;
23046;SDS011;11691;51.462;6.902;2022-12-05T09:49:50;17.03;;;10.93;;
23046;SDS011;11691;51.462;6.902;2022-12-05T09:52:48;20.50;;;11.43;;
23046;SDS011;11691;51.462;6.902;2022-12-05T09:55:18;16.73;;;11.07;;
23046;SDS011;11691;51.462;6.902;2022-12-05T09:57:55;17.83;;;12.30;;
23046;SDS011;11691;51.462;6.902;2022-12-05T10:00:24;21.70;;;12.90;;
23046;SDS011;11691;51.462;6.902;2022-12-05T10:10:33;22.73;;;13.20;;
23046;SDS011;11691;51.462;6.902;2022-12-05T10:16:02;19.37;;;13.23;;
23046;SDS011;11691;51.462;6.902;2022-12-05T10:24:11;21.37;;;13.47;;
23046;SDS011;11691;51.462;6.902;2022-12-05T10:26:43;22.27;;;12.90;;
23046;SDS011;11691;51.462;6.902;2022-12-05T10:29:29;25.10;;;15.27;;
23046;SDS011;11691;51.462;6.902;2022-12-05T10:34:45;23.63;;;14.97;;
23046;SDS011;11691;51.462;6.902;2022-12-05T10:37:18;22.00;;;14.70;;
23046;SDS011;11691;51.462;6.902;2022-12-05T10:39:46;21.57;;;14.20;;
23046;SDS011;11691;51.462;6.902;2022-12-05T10:42:16;26.83;;;14.97;;
23046;SDS011;11691;51.462;6.902;2022-12-05T10:44:49;24.23;;;15.97;;
23046;SDS011;11691;51.462;6.902;2022-12-05T10:47:21;23.90;;;14.20;;
23046;SDS011;11691;51.462;6.902;2022-12-05T10:49:47;21.37;;;14.37;;
23046;SDS011;11691;51.462;6.902;2022-12-05T10:52:13;21.70;;;13.63;;
23046;SDS011;11691;51.462;6.902;2022-12-05T10:54:44;21.80;;;13.17;;
23046;SDS011;11691;51.462;6.902;2022-12-05T10:57:22;18.20;;;11.53;;
23046;SDS011;11691;51.462;6.902;2022-12-05T10:59:50;16.87;;;11.73;;
23046;SDS011;11691;51.462;6.902;2022-12-05T11:02:20;21.80;;;13.10;;
23046;SDS011;11691;51.462;6.902;2022-12-05T11:04:46;17.70;;;12.30;;
23046;SDS011;11691;51.462;6.902;2022-12-05T11:07:23;20.57;;;12.60;;
23046;SDS011;11691;51.462;6.902;2022-12-05T11:09:49;19.40;;;12.80;;
23046;SDS011;11691;51.462;6.902;2022-12-05T11:12:19;16.43;;;11.83;;
23046;SDS011;11691;51.462;6.902;2022-12-05T11:17:45;19.43;;;12.83;;
23046;SDS011;11691;51.462;6.902;2022-12-05T11:22:40;17.53;;;11.63;;
23046;SDS011;11691;51.462;6.902;2022-12-05T11:25:28;18.93;;;12.47;;
23046;SDS011;11691;51.462;6.902;2022-12-05T11:27:59;19.90;;;12.13;;
23046;SDS011;11691;51.462;6.902;2022-12-05T11:30:55;21.60;;;11.73;;
23046;SDS011;11691;51.462;6.902;2022-12-05T11:33:22;19.10;;;12.40;;
23046;SDS011;11691;51.462;6.902;2022-12-05T11:35:49;17.53;;;11.27;;
23046;SDS011;11691;51.462;6.902;2022-12-05T11:38:16;17.43;;;11.93;;
23046;SDS011;11691;51.462;6.902;2022-12-05T11:48:49;18.87;;;11.83;;
23046;SDS011;11691;51.462;6.902;2022-12-05T11:57:04;18.40;;;11.80;;
23046;SDS011;11691;51.462;6.902;2022-12-05T12:02:21;17.53;;;11.37;;
23046;SDS011;11691;51.462;6.902;2022-12-05T12:07:55;19.23;;;11.83;;
23046;SDS011;11691;51.462;6.902;2022-12-05T12:13:19;18.40;;;12.47;;
23046;SDS011;11691;51.462;6.902;2022-12-05T12:47:33;15.90;;;11.37;;
23046;SDS011;11691;51.462;6.902;2022-12-05T12:50:10;15.93;;;11.30;;
23046;SDS011;11691;51.462;6.902;2022-12-05T12:53:25;16.40;;;11.03;;
23046;SDS011;11691;51.462;6.902;2022-12-05T12:55:49;16.70;;;10.73;;
23046;SDS011;11691;51.462;6.902;2022-12-05T13:03:31;15.83;;;10.77;;
23046;SDS011;11691;51.462;6.902;2022-12-05T13:06:01;14.80;;;10.03;;
23046;SDS011;11691;51.462;6.902;2022-12-05T13:08:34;17.17;;;11.27;;
23046;SDS011;11691;51.462;6.902;2022-12-05T13:11:01;15.63;;;11.07;;
23046;SDS011;11691;51.462;6.902;2022-12-05T13:13:33;15.60;;;10.17;;
23046;SDS011;11691;51.462;6.902;2022-12-05T13:16:02;16.43;;;11.33;;
23046;SDS011;11691;51.462;6.902;2022-12-05T13:18:30;15.77;;;11.30;;
23046;SDS011;11691;51.462;6.902;2022-12-05T13:20:56;18.47;;;11.97;;
23046;SDS011;11691;51.462;6.902;2022-12-05T13:23:24;18.30;;;12.30;;
23046;SDS011;11691;51.462;6.902;2022-12-05T13:25:53;17.20;;;12.13;;
23046;SDS011;11691;51.462;6.902;2022-12-05T13:28:34;16.17;;;11.40;;
23046;SDS011;11691;51.462;6.902;2022-12-05T13:31:08;17.17;;;12.10;;
23046;SDS011;11691;51.462;6.902;2022-12-05T13:33:41;17.43;;;11.77;;
23046;SDS011;11691;51.462;6.902;2022-12-05T13:36:08;14.50;;;10.83;;
23046;SDS011;11691;51.462;6.902;2022-12-05T13:38:54;18.33;;;11.13;;
23046;SDS011;11691;51.462;6.902;2022-12-05T13:41:40;18.57;;;11.40;;
23046;SDS011;11691;51.462;6.902;2022-12-05T13:44:37;14.97;;;10.57;;
23046;SDS011;11691;51.462;6.902;2022-12-05T13:47:04;18.97;;;12.00;;
23046;SDS011;11691;51.462;6.902;2022-12-05T13:49:36;17.47;;;12.00;;
23046;SDS011;11691;51.462;6.902;2022-12-05T13:52:21;19.67;;;11.43;;
23046;SDS011;11691;51.462;6.902;2022-12-05T13:54:53;15.93;;;11.50;;
23046;SDS011;11691;51.462;6.902;2022-12-05T14:07:45;21.30;;;13.87;;
23046;SDS011;11691;51.462;6.902;2022-12-05T14:10:13;22.93;;;13.70;;
23046;SDS011;11691;51.462;6.902;2022-12-05T14:18:46;20.87;;;13.33;;
23046;SDS011;11691;51.462;6.902;2022-12-05T14:31:38;21.17;;;13.23;;
23046;SDS011;11691;51.462;6.902;2022-12-05T14:34:28;22.97;;;14.77;;
23046;SDS011;11691;51.462;6.902;2022-12-05T14:37:19;26.13;;;16.27;;
23046;SDS011;11691;51.462;6.902;2022-12-05T14:39:51;24.70;;;16.00;;
23046;SDS011;11691;51.462;6.902;2022-12-05T14:44:45;21.57;;;13.53;;
23046;SDS011;11691;51.462;6.902;2022-12-05T14:47:11;23.20;;;15.17;;
23046;SDS011;11691;51.462;6.902;2022-12-05T14:49:54;22.33;;;14.30;;
23046;SDS011;11691;51.462;6.902;2022-12-05T14:52:24;19.90;;;13.60;;
23046;SDS011;11691;51.462;6.902;2022-12-05T14:54:51;19.10;;;12.50;;
23046;SDS011;11691;51.462;6.902;2022-12-05T14:57:19;19.93;;;12.70;;
23046;SDS011;11691;51.462;6.902;2022-12-05T14:59:50;20.10;;;13.07;;
23046;SDS011;11691;51.462;6.902;2022-12-05T15:02:19;21.23;;;13.80;;
23046;SDS011;11691;51.462;6.902;2022-12-05T15:05:24;20.43;;;13.13;;
23046;SDS011;11691;51.462;6.902;2022-12-05T15:07:43;18.93;;;13.33;;
23046;SDS011;11691;51.462;6.902;2022-12-05T15:12:40;19.83;;;13.63;;
23046;SDS011;11691;51.462;6.902;2022-12-05T15:17:42;21.13;;;14.47;;
23046;SDS011;11691;51.462;6.902;2022-12-05T15:20:29;20.63;;;14.57;;
23046;SDS011;11691;51.462;6.902;2022-12-05T15:22:56;24.73;;;15.00;;
23046;SDS011;11691;51.462;6.902;2022-12-05T15:25:26;23.37;;;15.07;;
23046;SDS011;11691;51.462;6.902;2022-12-05T15:28:04;20.67;;;14.23;;
23046;SDS011;11691;51.462;6.902;2022-12-05T15:30:41;20.93;;;14.70;;
23046;SDS011;11691;51.462;6.902;2022-12-05T15:33:11;21.83;;;15.07;;
23046;SDS011;11691;51.462;6.902;2022-12-05T15:35:37;21.03;;;15.07;;
23046;SDS011;11691;51.462;6.902;2022-12-05T15:38:05;22.33;;;15.27;;
23046;SDS011;11691;51.462;6.902;2022-12-05T15:40:33;26.20;;;15.90;;
23046;SDS011;11691;51.462;6.902;2022-12-05T15:48:48;24.20;;;15.07;;
23046;SDS011;11691;51.462;6.902;2022-12-05T15:51:14;23.67;;;15.97;;
23046;SDS011;11691;51.462;6.902;2022-12-05T15:53:43;24.73;;;15.37;;
23046;SDS011;11691;51.462;6.902;2022-12-05T15:56:21;23.33;;;15.60;;
23046;SDS011;11691;51.462;6.902;2022-12-05T15:58:55;24.60;;;15.73;;
23046;SDS011;11691;51.462;6.902;2022-12-05T16:01:32;24.53;;;15.63;;
23046;SDS011;11691;51.462;6.902;2022-12-05T16:04:17;23.67;;;14.80;;
23046;SDS011;11691;51.462;6.902;2022-12-05T16:06:49;23.83;;;15.50;;
23046;SDS011;11691;51.462;6.902;2022-12-05T16:09:19;24.27;;;16.10;;
23046;SDS011;11691;51.462;6.902;2022-12-05T16:11:54;25.67;;;16.00;;
23046;SDS011;11691;51.462;6.902;2022-12-05T16:14:22;23.37;;;15.67;;
23046;SDS011;11691;51.462;6.902;2022-12-05T16:16:49;24.97;;;16.00;;
23046;SDS011;11691;51.462;6.902;2022-12-05T16:19:22;24.60;;;15.87;;
23046;SDS011;11691;51.462;6.902;2022-12-05T16:22:05;29.10;;;17.53;;
23046;SDS011;11691;51.462;6.902;2022-12-05T16:24:34;24.97;;;16.80;;
23046;SDS011;11691;51.462;6.902;2022-12-05T16:29:31;26.03;;;17.23;;
23046;SDS011;11691;51.462;6.902;2022-12-05T16:31:59;28.70;;;18.57;;
23046;SDS011;11691;51.462;6.902;2022-12-05T16:34:28;29.37;;;18.17;;
23046;SDS011;11691;51.462;6.902;2022-12-05T16:36:57;29.23;;;18.03;;
23046;SDS011;11691;51.462;6.902;2022-12-05T16:39:23;29.67;;;18.10;;
23046;SDS011;11691;51.462;6.902;2022-12-05T16:41:50;26.77;;;16.43;;
23046;SDS011;11691;51.462;6.902;2022-12-05T16:46:52;25.23;;;16.97;;
23046;SDS011;11691;51.462;6.902;2022-12-05T16:51:51;26.80;;;17.63;;
23046;SDS011;11691;51.462;6.902;2022-12-05T16:54:17;27.53;;;17.87;;
23046;SDS011;11691;51.462;6.902;2022-12-05T16:56:43;27.03;;;16.63;;
23046;SDS011;11691;51.462;6.902;2022-12-05T16:59:12;25.47;;;17.37;;
23046;SDS011;11691;51.462;6.902;2022-12-05T17:01:42;23.97;;;15.90;;
23046;SDS011;11691;51.462;6.902;2022-12-05T17:04:08;27.17;;;16.00;;
23046;SDS011;11691;51.462;6.902;2022-12-05T17:06:35;21.60;;;14.70;;
23046;SDS011;11691;51.462;6.902;2022-12-05T17:09:01;24.53;;;15.67;;
23046;SDS011;11691;51.462;6.902;2022-12-05T17:11:31;22.77;;;15.17;;
23046;SDS011;11691;51.462;6.902;2022-12-05T17:13:59;20.60;;;14.20;;
23046;SDS011;11691;51.462;6.902;2022-12-05T17:16:26;21.37;;;15.33;;
23046;SDS011;11691;51.462;6.902;2022-12-05T17:18:52;20.63;;;14.70;;
23046;SDS011;11691;51.462;6.902;2022-12-05T17:21:19;21.07;;;14.53;;
23046;SDS011;11691;51.462;6.902;2022-12-05T17:23:49;20.03;;;13.57;;
23046;SDS011;11691;51.462;6.902;2022-12-05T17:26:17;22.10;;;13.87;;
23046;SDS011;11691;51.462;6.902;2022-12-05T17:28:45;18.23;;;12.90;;
23046;SDS011;11691;51.462;6.902;2022-12-05T17:31:18;19.17;;;13.17;;